Time;durP1;ratioP1;P1;durP2;ratioP2;P2;SDS_P1;SDS_P2;PMS_P1;PMS_P2;Temp;Humidity;BMP_temperature;BMP_pressure;BME280_temperature;BME280_humidity;BME280_pressure;Samples;Min_cycle;Max_cycle;Signal;HPM_P1;HPM_P2
2022/05/16 00:02:23;;;;;;;11.10;9.90;;;;;;;16.19;100.00;100402.16;4800871;23;10000890;-70
2022/05/16 00:04:52;;;;;;;11.52;10.18;;;;;;;15.85;100.00;100397.66;5026624;28;20609;-70
2022/05/16 00:07:20;;;;;;;11.45;8.80;;;;;;;15.73;100.00;100405.03;5030974;28;20037;-69
2022/05/16 00:09:45;;;;;;;9.27;8.30;;;;;;;15.59;100.00;100346.66;5029764;28;20036;-70
2022/05/16 00:12:13;;;;;;;11.57;8.20;;;;;;;15.90;100.00;100341.03;5021041;28;20030;-69
2022/05/16 00:14:40;;;;;;;9.73;8.70;;;;;;;16.21;100.00;100400.34;5009589;28;20025;-69
2022/05/16 00:17:05;;;;;;;11.00;9.10;;;;;;;16.00;100.00;100393.59;5010839;28;20030;-70
2022/05/16 00:19:31;;;;;;;9.30;8.35;;;;;;;15.52;100.00;100327.31;5010487;28;20022;-70
2022/05/16 00:21:57;;;;;;;10.25;8.73;;;;;;;15.89;100.00;100380.38;5011265;28;20026;-69
2022/05/16 00:24:26;;;;;;;9.52;8.50;;;;;;;15.56;100.00;100339.09;5011143;28;20064;-70
2022/05/16 00:26:56;;;;;;;10.70;8.90;;;;;;;15.72;100.00;100349.53;5021908;28;20411;-70
2022/05/16 00:29:22;;;;;;;10.75;8.70;;;;;;;15.96;100.00;100392.06;5029293;28;20122;-70
2022/05/16 00:31:47;;;;;;;10.40;8.70;;;;;;;15.53;100.00;100344.34;5030215;28;20065;-70
2022/05/16 00:34:15;;;;;;;9.75;8.82;;;;;;;15.76;100.00;100326.25;5029459;28;20033;-69
2022/05/16 00:36:43;;;;;;;10.40;9.25;;;;;;;15.28;100.00;100321.47;5030531;28;20039;-70
2022/05/16 00:39:08;;;;;;;10.60;9.50;;;;;;;15.36;100.00;100327.09;5029291;28;20022;-70
2022/05/16 00:41:34;;;;;;;10.95;9.48;;;;;;;15.78;100.00;100382.59;5029263;28;20506;-70
2022/05/16 00:44:00;;;;;;;10.65;9.60;;;;;;;15.61;100.00;100340.56;5030549;28;20029;-70
2022/05/16 00:46:29;;;;;;;11.35;9.52;;;;;;;16.18;100.00;100385.91;5030296;28;20519;-69
2022/05/16 00:48:55;;;;;;;10.85;9.65;;;;;;;15.85;100.00;100332.69;5029443;28;20022;-70
2022/05/16 00:51:28;;;;;;;10.07;9.07;;;;;;;15.89;100.00;100349.63;5029167;28;20551;-69
2022/05/16 00:53:58;;;;;;;11.00;8.57;;;;;;;15.92;100.00;100331.53;5030773;28;20029;-69
2022/05/16 00:56:26;;;;;;;11.50;10.10;;;;;;;15.88;100.00;100397.53;5030376;28;20061;-69
2022/05/16 00:58:51;;;;;;;10.57;9.48;;;;;;;15.88;100.00;100394.97;5029958;28;20462;-70
2022/05/16 01:06:47;;;;;;;10.95;9.80;;;;;;;15.87;100.00;100390.72;5010756;28;20127;-69
2022/05/16 01:09:13;;;;;;;11.32;10.10;;;;;;;15.60;100.00;100379.09;5010241;28;20085;-70
2022/05/16 01:11:39;;;;;;;10.50;9.38;;;;;;;15.93;100.00;100392.19;5010303;28;20030;-70
2022/05/16 01:14:04;;;;;;;11.00;9.50;;;;;;;15.44;100.00;100355.81;5009546;28;20463;-70
2022/05/16 01:16:30;;;;;;;12.10;9.60;;;;;;;15.87;100.00;100384.75;5010382;28;20463;-69
2022/05/16 01:18:55;;;;;;;12.68;9.95;;;;;;;15.56;100.00;100383.50;5010427;28;20424;-70
2022/05/16 01:21:37;;;;;;;11.13;9.50;;;;;;;15.19;100.00;100309.00;5010339;28;20065;-70
2022/05/16 01:24:12;;;;;;;11.90;10.30;;;;;;;15.37;100.00;100320.25;5010195;28;20037;-70
2022/05/16 01:26:38;;;;;;;11.55;9.93;;;;;;;15.48;100.00;100347.13;5009713;28;20117;-69
2022/05/16 01:29:05;;;;;;;12.82;10.10;;;;;;;15.73;100.00;100364.03;5012817;28;20128;-70
2022/05/16 01:31:31;;;;;;;12.02;10.77;;;;;;;15.36;100.00;100310.88;5014011;28;20034;-69
2022/05/16 01:33:56;;;;;;;12.80;9.80;;;;;;;15.78;100.00;100350.09;5014085;28;20143;-69
2022/05/16 01:36:23;;;;;;;14.90;11.05;;;;;;;16.01;100.00;100372.16;5012404;28;20508;-69
2022/05/16 01:38:48;;;;;;;13.82;11.20;;;;;;;15.96;100.00;100374.13;5013635;28;20034;-70
2022/05/16 01:41:18;;;;;;;12.88;11.45;;;;;;;15.52;100.00;100317.91;5013681;28;20041;-70
2022/05/16 01:43:48;;;;;;;12.57;11.27;;;;;;;16.04;100.00;100372.88;5013679;28;20117;-70
2022/05/16 01:46:18;;;;;;;12.30;11.00;;;;;;;15.54;100.00;100326.34;5013531;28;20026;-70
2022/05/16 01:48:44;;;;;;;12.85;11.10;;;;;;;15.80;100.00;100338.06;5013597;28;20025;-69
2022/05/16 01:51:11;;;;;;;12.73;11.30;;;;;;;16.05;100.00;100383.97;5013207;28;20072;-68
2022/05/16 01:53:39;;;;;;;12.60;11.35;;;;;;;15.78;100.00;100321.91;5013700;28;20041;-69
2022/05/16 01:56:04;;;;;;;13.20;11.90;;;;;;;15.69;100.00;100376.13;5013548;28;20537;-69
2022/05/16 01:58:30;;;;;;;13.02;10.68;;;;;;;15.60;100.00;100382.50;5012200;28;20045;-70
2022/05/16 02:00:55;;;;;;;12.75;11.02;;;;;;;15.21;100.00;100335.41;5011864;28;20073;-69
2022/05/16 02:03:21;;;;;;;10.23;9.23;;;;;;;15.70;100.00;100376.97;5013084;28;20077;-69
2022/05/16 02:05:47;;;;;;;10.90;9.70;;;;;;;14.98;100.00;100329.53;5011816;28;20120;-69
2022/05/16 02:08:13;;;;;;;10.90;9.07;;;;;;;15.17;100.00;100390.22;5013321;28;20033;-69
2022/05/16 02:10:40;;;;;;;10.80;9.80;;;;;;;14.85;100.00;100395.78;5013196;28;20555;-69
2022/05/16 02:13:08;;;;;;;10.88;9.40;;;;;;;15.00;100.00;100378.97;5011816;28;20531;-70
2022/05/16 02:15:36;;;;;;;11.40;10.18;;;;;;;14.83;100.00;100405.25;5012090;28;20026;-69
2022/05/16 02:18:03;;;;;;;11.73;9.85;;;;;;;14.55;100.00;100338.09;5012870;28;20041;-70
2022/05/16 02:20:29;;;;;;;11.38;10.27;;;;;;;14.66;100.00;100392.25;5012749;28;20053;-69
2022/05/16 02:25:45;;;;;;;10.65;9.52;;;;;;;14.62;100.00;100339.50;5013104;28;20092;-69
2022/05/16 02:28:14;;;;;;;12.55;9.55;;;;;;;14.60;100.00;100384.81;5011627;28;20439;-69
2022/05/16 02:30:44;;;;;;;10.93;9.88;;;;;;;14.71;100.00;100415.94;5012578;28;20037;-70
2022/05/16 02:33:10;;;;;;;12.32;9.45;;;;;;;14.45;100.00;100350.41;5012744;28;20034;-70
2022/05/16 02:35:36;;;;;;;10.85;9.70;;;;;;;14.75;100.00;100415.78;5011588;28;20561;-69
2022/05/16 02:38:03;;;;;;;11.93;10.55;;;;;;;14.48;100.00;100398.88;5011342;28;20149;-69
2022/05/16 02:40:30;;;;;;;12.18;10.98;;;;;;;13.90;100.00;100349.00;5012213;28;20034;-69
2022/05/16 02:42:56;;;;;;;13.25;10.68;;;;;;;14.04;100.00;100340.00;5021439;28;20038;-69
2022/05/16 02:45:21;;;;;;;13.43;10.80;;;;;;;14.50;100.00;100403.94;5030903;28;20040;-69
2022/05/16 02:47:47;;;;;;;12.80;10.68;;;;;;;14.08;100.00;100346.69;5031560;28;20187;-69
2022/05/16 02:50:13;;;;;;;14.48;11.07;;;;;;;14.26;100.00;100363.91;5031279;28;20029;-69
2022/05/16 02:52:38;;;;;;;14.05;11.38;;;;;;;14.11;100.00;100351.66;5030905;28;20029;-68
2022/05/16 02:55:05;;;;;;;13.93;11.80;;;;;;;14.31;100.00;100397.84;5027572;28;20037;-68
2022/05/16 02:57:32;;;;;;;16.50;12.93;;;;;;;13.86;100.00;100283.53;5030596;28;20056;-68
2022/05/16 02:59:58;;;;;;;15.88;13.05;;;;;;;14.05;100.00;100344.22;5030273;28;20033;-68
2022/05/16 03:02:23;;;;;;;14.95;12.25;;;;;;;14.55;100.00;100390.13;5031281;28;20073;-68
2022/05/16 03:04:49;;;;;;;14.48;12.35;;;;;;;14.47;100.00;100337.56;5030296;28;20060;-68
2022/05/16 03:07:14;;;;;;;17.10;15.40;;;;;;;14.00;100.00;100318.00;5030540;28;20506;-68
2022/05/16 03:09:40;;;;;;;20.85;17.48;;;;;;;14.09;100.00;100284.41;5030331;28;20052;-68
2022/05/16 03:12:06;;;;;;;20.10;17.98;;;;;;;14.81;100.00;100399.34;5030546;28;20034;-68
2022/05/16 03:14:31;;;;;;;18.95;16.38;;;;;;;14.70;100.00;100401.47;5031321;28;20033;-69
2022/05/16 03:16:57;;;;;;;17.38;14.75;;;;;;;14.73;100.00;100360.41;5031356;28;20041;-68
2022/05/16 03:19:22;;;;;;;16.08;14.25;;;;;;;15.08;100.00;100416.19;5030246;28;20087;-69
2022/05/16 03:21:48;;;;;;;16.80;14.70;;;;;;;14.42;100.00;100307.00;5031576;28;20076;-69
2022/05/16 03:24:13;;;;;;;19.73;17.67;;;;;;;14.88;100.00;100339.31;5025815;28;20117;-69
2022/05/16 03:26:39;;;;;;;23.27;19.45;;;;;;;14.87;100.00;100352.19;5029902;28;20029;-68
2022/05/16 03:29:11;;;;;;;22.38;20.02;;;;;;;14.94;100.00;100366.41;5029279;28;20025;-69
2022/05/16 03:31:37;;;;;;;26.58;23.83;;;;;;;14.91;100.00;100415.19;5031668;28;20380;-69
2022/05/16 03:34:03;;;;;;;30.70;26.45;;;;;;;15.55;100.00;100427.13;5029685;28;20030;-69
2022/05/16 03:36:28;;;;;;;26.55;23.75;;;;;;;15.43;100.00;100430.22;5031051;28;20025;-69
2022/05/16 03:41:38;;;;;;;22.77;16.38;;;;;;;15.15;100.00;100394.56;5031189;28;20040;-70
2022/05/16 03:44:04;;;;;;;19.85;14.20;;;;;;;15.31;100.00;100443.47;5029810;28;20030;-68
2022/05/16 03:46:30;;;;;;;18.00;13.25;;;;;;;15.04;100.00;100413.81;5029889;28;20402;-69
2022/05/16 03:48:55;;;;;;;19.50;13.55;;;;;;;14.63;100.00;100388.09;5030846;28;20033;-68
2022/05/16 03:51:21;;;;;;;16.73;12.60;;;;;;;15.03;100.00;100448.84;5030644;28;20029;-68
2022/05/16 03:53:46;;;;;;;15.50;13.77;;;;;;;15.11;100.00;100446.84;5031155;28;20044;-68
2022/05/16 03:56:23;;;;;;;15.63;12.75;;;;;;;15.12;100.00;100425.44;5030582;28;20025;-68
2022/05/16 03:58:49;;;;;;;17.70;13.13;;;;;;;14.91;100.00;100390.44;5030808;28;20025;-68
2022/05/16 04:01:15;;;;;;;18.98;14.07;;;;;;;15.32;100.00;100450.25;5029184;28;20528;-68
2022/05/16 04:03:40;;;;;;;15.65;12.63;;;;;;;15.09;100.00;100443.50;5030707;28;20061;-68
2022/05/16 04:06:06;;;;;;;15.73;12.85;;;;;;;15.13;100.00;100451.88;5030937;28;20025;-68
2022/05/16 04:08:32;;;;;;;15.50;12.07;;;;;;;15.26;100.00;100424.88;5030469;28;20036;-71
2022/05/16 04:10:59;;;;;;;14.90;12.57;;;;;;;15.37;100.00;100444.06;5030262;28;20491;-68
2022/05/16 04:13:26;;;;;;;18.17;14.98;;;;;;;15.72;100.00;100475.16;5030767;28;20033;-68
2022/05/16 04:15:52;;;;;;;17.20;13.40;;;;;;;15.53;100.00;100419.50;5030619;28;20116;-68
2022/05/16 04:18:18;;;;;;;19.55;16.48;;;;;;;15.45;100.00;100426.66;5030729;28;20044;-68
2022/05/16 04:20:43;;;;;;;23.42;16.88;;;;;;;15.63;100.00;100463.53;5030425;28;20034;-69
2022/05/16 04:23:09;;;;;;;22.67;15.65;;;;;;;15.40;100.00;100428.56;5030978;28;20132;-68
2022/05/16 04:25:37;;;;;;;17.45;13.38;;;;;;;15.82;100.00;100463.63;5030078;28;20030;-68
2022/05/16 04:28:04;;;;;;;15.80;14.07;;;;;;;15.48;100.00;100425.72;5030541;28;20064;-67
2022/05/16 04:30:29;;;;;;;19.02;14.18;;;;;;;15.63;100.00;100415.66;5030618;28;20527;-67
2022/05/16 04:32:55;;;;;;;16.52;13.20;;;;;;;16.09;100.00;100467.56;5024551;28;20029;-67
2022/05/16 04:35:20;;;;;;;18.85;14.32;;;;;;;15.85;100.00;100427.56;5010579;28;20121;-67
2022/05/16 04:37:46;;;;;;;15.10;12.95;;;;;;;16.21;100.00;100455.06;5010536;28;20037;-68
2022/05/16 04:40:12;;;;;;;19.77;14.13;;;;;;;16.66;100.00;100477.91;5026616;28;20095;-67
2022/05/16 04:42:41;;;;;;;20.70;14.60;;;;;;;16.78;100.00;100451.66;5030166;28;20029;-68
2022/05/16 04:45:19;;;;;;;22.05;14.93;;;;;;;17.00;100.00;100475.47;5027688;28;20502;-68
2022/05/16 04:47:50;;;;;;;23.45;15.80;;;;;;;16.81;100.00;100428.44;5029380;28;20038;-67
2022/05/16 04:50:19;;;;;;;19.35;15.60;;;;;;;17.45;100.00;100490.44;5030207;28;20025;-68
2022/05/16 04:52:46;;;;;;;20.60;16.08;;;;;;;17.40;100.00;100494.16;5030173;28;20037;-67
2022/05/16 04:55:12;;;;;;;21.25;15.05;;;;;;;17.24;100.00;100491.47;5030661;28;20567;-67
2022/05/16 04:57:38;;;;;;;18.60;15.00;;;;;;;17.59;100.00;100489.84;5030346;28;20068;-67
2022/05/16 05:00:05;;;;;;;15.63;13.85;;;;;;;17.82;100.00;100486.97;5030042;28;20057;-68
2022/05/16 05:02:30;;;;;;;17.63;13.57;;;;;;;17.87;100.00;100480.69;5032222;28;20099;-67
2022/05/16 05:04:56;;;;;;;13.38;11.75;;;;;;;17.55;100.00;100448.00;5033789;28;20021;-67
2022/05/16 05:07:22;;;;;;;12.65;11.02;;;;;;;17.85;100.00;100399.34;5034078;28;20099;-67
2022/05/16 05:15:17;;;;;;;11.32;9.93;;;;;;;18.14;100.00;100488.78;5033811;28;20044;-68
2022/05/16 05:17:43;;;;;;;10.52;9.18;;;;;;;18.95;100.00;100520.56;5034114;28;20033;-68
2022/05/16 05:20:13;;;;;;;13.82;11.50;;;;;;;18.55;100.00;100515.81;5033651;28;20033;-69
2022/05/16 05:22:43;;;;;;;11.32;10.05;;;;;;;17.66;100.00;100468.06;5033670;28;20128;-68
2022/05/16 05:25:11;;;;;;;11.30;9.98;;;;;;;18.92;100.00;100479.47;5033956;28;20119;-69
2022/05/16 05:27:40;;;;;;;11.63;10.18;;;;;;;19.16;100.00;100515.13;5033597;28;20025;-68
2022/05/16 05:30:12;;;;;;;15.73;10.35;;;;;;;18.88;100.00;100533.81;5033299;28;20036;-70
2022/05/16 05:32:38;;;;;;;12.50;10.35;;;;;;;17.73;100.00;100436.81;5032164;28;20044;-68
2022/05/16 05:35:06;;;;;;;10.85;9.73;;;;;;;19.12;100.00;100467.22;5033511;28;20025;-67
2022/05/16 05:37:31;;;;;;;10.48;9.35;;;;;;;19.11;100.00;100528.28;5032061;28;20076;-67
2022/05/16 05:40:01;;;;;;;11.23;9.40;;;;;;;19.15;100.00;100523.78;5033377;28;20491;-68
2022/05/16 05:42:30;;;;;;;9.63;8.63;;;;;;;19.51;100.00;100490.84;5033197;28;20026;-68
2022/05/16 05:44:56;;;;;;;11.57;8.98;;;;;;;19.55;100.00;100492.34;5033058;28;20474;-68
2022/05/16 05:47:21;;;;;;;11.13;8.88;;;;;;;19.62;100.00;100516.84;5033398;28;20112;-69
2022/05/16 05:49:47;;;;;;;9.32;8.23;;;;;;;18.33;100.00;100444.88;5033390;28;20223;-68
2022/05/16 05:52:15;;;;;;;9.95;8.90;;;;;;;19.35;100.00;100479.72;5033028;28;20562;-69
2022/05/16 05:54:44;;;;;;;9.70;8.80;;;;;;;19.77;100.00;100515.97;5033186;28;20025;-69
2022/05/16 05:57:10;;;;;;;11.32;8.32;;;;;;;19.37;100.00;100491.59;5032691;28;20040;-69
2022/05/16 05:59:36;;;;;;;9.15;7.50;;;;;;;18.74;100.00;100449.53;5019093;28;20041;-69
2022/05/16 06:02:02;;;;;;;8.32;7.47;;;;;;;20.36;100.00;100499.63;5014279;28;20057;-69
2022/05/16 06:04:28;;;;;;;7.78;6.97;;;;;;;20.59;100.00;100486.13;5021601;28;20042;-69
2022/05/16 06:06:53;;;;;;;10.43;6.72;;;;;;;20.21;100.00;100462.63;5013330;28;20502;-70
2022/05/16 06:09:19;;;;;;;10.18;6.70;;;;;;;20.96;100.00;100537.22;5013001;28;20026;-69
2022/05/16 06:11:44;;;;;;;7.72;6.22;;;;;;;20.94;100.00;100487.38;5012598;28;20040;-69
2022/05/16 06:14:09;;;;;;;7.82;6.78;;;;;;;20.08;100.00;100504.72;5012599;28;20423;-70
2022/05/16 06:16:35;;;;;;;8.32;6.53;;;;;;;20.96;100.00;100554.50;5013092;28;20133;-69
2022/05/16 06:19:01;;;;;;;7.70;5.75;;;;;;;20.36;100.00;100507.38;5012907;28;20037;-73
2022/05/16 06:21:26;;;;;;;7.47;6.22;;;;;;;21.60;100.00;100497.81;5027666;28;20472;-70
2022/05/16 06:23:52;;;;;;;7.68;6.13;;;;;;;21.02;100.00;100461.06;5031360;28;20048;-71
2022/05/16 06:26:17;;;;;;;10.82;6.55;;;;;;;21.55;100.00;100468.81;5032382;28;20086;-69
2022/05/16 06:28:43;;;;;;;10.80;6.47;;;;;;;20.99;100.00;100534.47;5032668;28;20026;-69
2022/05/16 06:31:09;;;;;;;7.82;6.65;;;;;;;20.11;100.00;100496.78;5031355;28;20025;-70
2022/05/16 06:33:35;;;;;;;7.78;6.05;;;;;;;21.66;100.00;100528.47;5032364;28;20036;-70
2022/05/16 06:36:05;;;;;;;9.23;6.55;;;;;;;21.93;100.00;100500.78;5032409;28;20026;-70
2022/05/16 06:38:33;;;;;;;8.25;6.47;;;;;;;22.37;100.00;100542.69;5032227;28;20037;-69
2022/05/16 06:40:59;;;;;;;13.18;6.95;;;;;;;22.76;100.00;100546.13;5031821;28;20034;-69
2022/05/16 06:43:28;;;;;;;10.80;6.90;;;;;;;22.10;100.00;100484.13;5032444;28;20030;-69
2022/05/16 06:45:54;;;;;;;8.63;6.60;;;;;;;23.19;100.00;100552.56;5032139;28;20099;-69
2022/05/16 06:48:20;;;;;;;11.65;7.72;;;;;;;22.21;100.00;100536.06;5031991;28;20496;-69
2022/05/16 06:50:47;;;;;;;9.00;8.10;;;;;;;22.81;100.00;100546.63;5032086;28;20037;-69
2022/05/16 06:53:15;;;;;;;8.05;7.25;;;;;;;22.87;100.00;100486.56;5031872;28;20116;-69
2022/05/16 06:55:41;;;;;;;10.23;6.97;;;;;;;23.60;100.00;100527.09;5031937;28;20116;-69
2022/05/16 06:58:07;;;;;;;8.48;7.45;;;;;;;23.19;100.00;100532.63;5030572;28;20109;-69
2022/05/16 07:00:33;;;;;;;9.88;6.88;;;;;;;22.44;100.00;100481.72;5030597;28;20099;-69
2022/05/16 07:02:59;;;;;;;10.10;7.03;;;;;;;23.78;100.00;100510.16;5030348;28;20491;-69
2022/05/16 07:05:24;;;;;;;9.98;7.68;;;;;;;23.37;100.00;100535.72;5031929;28;20116;-70
2022/05/16 07:07:51;;;;;;;9.23;6.43;;;;;;;22.70;100.00;100479.16;5031660;28;20061;-69
2022/05/16 07:10:17;;;;;;;8.55;7.25;;;;;;;22.27;100.00;100483.81;5030357;28;20506;-69
2022/05/16 07:12:42;;;;;;;9.32;6.75;;;;;;;23.40;100.00;100527.69;5031827;28;20029;-69
2022/05/16 07:15:08;;;;;;;6.88;6.20;;;;;;;23.62;100.00;100529.56;5031697;28;20088;-69
2022/05/16 07:17:34;;;;;;;7.18;6.45;;;;;;;23.73;100.00;100488.88;5030349;28;20034;-69
2022/05/16 07:19:59;;;;;;;8.55;6.80;;;;;;;24.20;100.00;100521.75;5031583;28;20403;-69
2022/05/16 07:22:25;;;;;;;7.13;6.28;;;;;;;24.47;100.00;100513.59;5030140;28;20079;-69
2022/05/16 07:24:55;;;;;;;8.77;7.25;;;;;;;24.05;100.00;100518.53;5030551;28;20034;-69
2022/05/16 07:30:07;;;;;;;12.35;7.72;;;;;;;23.51;100.00;100506.97;5015246;28;20609;-68
2022/05/16 07:32:41;;;;;;;10.07;8.23;;;;;;;24.26;100.00;100466.69;5011678;28;20041;-68
2022/05/16 07:35:09;;;;;;;11.27;7.25;;;;;;;23.96;100.00;100456.81;5011350;28;20030;-69
2022/05/16 07:37:34;;;;;;;10.68;7.65;;;;;;;23.68;100.00;100467.63;5011474;28;20026;-68
2022/05/16 07:40:00;;;;;;;10.05;7.70;;;;;;;25.31;100.00;100519.91;5010143;28;20030;-68
2022/05/16 07:42:26;;;;;;;8.85;7.82;;;;;;;24.56;100.00;100526.72;5010155;28;20026;-69
2022/05/16 07:44:51;;;;;;;10.52;8.10;;;;;;;25.16;100.00;100513.31;5011455;28;20030;-68
2022/05/16 07:47:17;;;;;;;8.60;7.70;;;;;;;25.58;100.00;100456.97;5010087;28;20025;-69
2022/05/16 07:49:42;;;;;;;9.30;7.97;;;;;;;24.91;100.00;100483.22;5010968;28;20120;-69
2022/05/16 07:52:09;;;;;;;10.70;9.48;;;;;;;23.66;100.00;100417.56;5011304;28;20030;-69
2022/05/16 07:54:35;;;;;;;10.13;8.63;;;;;;;26.06;100.00;100522.44;5010215;28;20026;-68
2022/05/16 07:57:00;;;;;;;9.88;8.15;;;;;;;25.44;100.00;100499.78;5011231;28;20033;-69
2022/05/16 07:59:25;;;;;;;11.02;8.30;;;;;;;25.16;100.00;100445.63;5011456;28;20025;-69
2022/05/16 08:01:51;;;;;;;8.65;7.75;;;;;;;25.61;100.00;100509.63;5011084;28;20473;-70
2022/05/16 08:04:17;;;;;;;11.70;8.32;;;;;;;24.84;100.00;100471.63;5011076;28;20060;-70
2022/05/16 08:06:43;;;;;;;8.90;8.07;;;;;;;26.53;100.00;100511.44;5011536;28;20099;-69
2022/05/16 08:11:52;;;;;;;10.80;7.20;;;;;;;26.19;100.00;100490.00;5011114;28;20041;-70
2022/05/16 08:14:17;;;;;;;8.02;7.18;;;;;;;26.26;100.00;100443.38;5009844;28;20029;-68
2022/05/16 08:16:42;;;;;;;10.40;7.03;;;;;;;25.93;100.00;100512.19;5010905;28;20476;-68
2022/05/16 08:19:08;;;;;;;7.78;6.97;;;;;;;26.88;97.25;100506.63;5010986;28;20603;-68
2022/05/16 08:21:34;;;;;;;9.07;7.57;;;;;;;26.55;99.67;100501.69;5011224;28;20112;-69
2022/05/16 08:24:01;;;;;;;11.13;7.97;;;;;;;26.21;100.00;100498.53;5010982;28;20511;-68
2022/05/16 08:26:27;;;;;;;12.43;7.75;;;;;;;26.42;100.00;100494.09;5011098;28;20129;-69
2022/05/16 08:28:52;;;;;;;10.60;7.88;;;;;;;24.98;100.00;100495.75;5011425;28;20120;-68
2022/05/16 08:31:17;;;;;;;10.35;7.18;;;;;;;26.69;100.00;100503.94;5009383;28;20041;-68
2022/05/16 08:33:43;;;;;;;9.40;7.30;;;;;;;26.12;100.00;100465.44;5010924;28;20032;-68
2022/05/16 08:41:51;;;;;;;9.77;6.97;;;;;;;27.82;93.73;100470.28;5014936;28;20049;-68
2022/05/16 08:44:21;;;;;;;7.10;6.32;;;;;;;27.05;91.63;100405.94;5017151;28;20030;-69
2022/05/16 08:47:12;;;;;;;7.63;6.83;;;;;;;27.35;92.32;100499.88;5023421;28;20034;-69
2022/05/16 08:49:45;;;;;;;10.50;6.85;;;;;;;26.75;94.38;100503.47;5013439;28;20034;-70
2022/05/16 08:52:33;;;;;;;7.07;6.47;;;;;;;26.82;92.14;100507.16;5015186;28;20030;-70
2022/05/16 08:55:15;;;;;;;8.93;6.65;;;;;;;26.81;93.36;100502.94;5024020;28;20037;-69
2022/05/16 08:57:49;;;;;;;7.35;6.63;;;;;;;27.13;95.63;100500.94;5032935;28;20064;-68
2022/05/16 09:00:51;;;;;;;7.35;6.60;;;;;;;27.55;89.34;100495.47;5033898;28;20029;-68
2022/05/16 09:03:33;;;;;;;9.25;6.15;;;;;;;26.86;87.52;100511.16;5027359;28;20144;-67
2022/05/16 09:06:05;;;;;;;7.45;6.00;;;;;;;27.17;88.20;100489.25;5034219;28;20037;-68
2022/05/16 09:08:51;;;;;;;7.28;5.55;;;;;;;27.45;82.90;100493.69;5032849;28;20590;-68
2022/05/16 09:11:26;;;;;;;5.93;5.43;;;;;;;27.70;79.29;100489.69;5031640;28;20124;-68
2022/05/16 09:13:57;;;;;;;6.18;5.50;;;;;;;27.43;77.05;100484.34;5034828;28;20076;-68
2022/05/16 09:16:25;;;;;;;7.70;6.20;;;;;;;27.18;81.25;100490.06;5053656;28;20104;-69
2022/05/16 09:18:57;;;;;;;6.78;6.15;;;;;;;27.01;80.78;100428.06;5053294;28;20052;-68
2022/05/16 09:22:02;;;;;;;8.30;6.13;;;;;;;27.83;79.30;100422.22;5053240;28;20028;-69
2022/05/16 09:24:35;;;;;;;8.70;6.85;;;;;;;27.80;80.66;100447.84;5053541;28;20112;-68
2022/05/16 09:30:07;;;;;;;6.57;5.90;;;;;;;26.91;79.72;100461.19;5053811;28;20079;-66
2022/05/16 09:32:41;;;;;;;6.47;5.40;;;;;;;28.18;75.89;100442.53;5053473;28;20207;-67
2022/05/16 09:35:30;;;;;;;6.13;5.53;;;;;;;27.18;75.46;100403.88;5052248;28;20459;-67
2022/05/16 09:37:58;;;;;;;7.63;5.40;;;;;;;27.51;74.93;100436.63;5053169;28;20517;-69
2022/05/16 09:40:31;;;;;;;9.07;5.32;;;;;;;28.58;74.23;100388.09;5053490;28;20505;-69
2022/05/16 09:43:05;;;;;;;7.20;5.18;;;;;;;28.17;72.35;100410.31;5053354;28;20025;-69
2022/05/16 09:45:31;;;;;;;6.40;5.70;;;;;;;27.60;77.75;100441.00;5052175;28;20442;-70
2022/05/16 09:47:58;;;;;;;6.30;5.60;;;;;;;27.09;75.74;100386.44;5052566;28;20029;-70
2022/05/16 09:50:27;;;;;;;6.97;5.68;;;;;;;28.19;72.75;100363.06;5038791;28;20034;-69
2022/05/16 09:53:02;;;;;;;6.80;6.10;;;;;;;28.93;70.97;100442.28;5031797;28;20033;-69
2022/05/16 09:55:33;;;;;;;6.20;5.60;;;;;;;28.80;73.50;100436.59;5031682;28;20041;-68
2022/05/16 09:58:14;;;;;;;7.00;6.30;;;;;;;28.20;76.19;100443.22;5027088;28;20511;-68
2022/05/16 10:00:52;;;;;;;6.75;6.13;;;;;;;28.76;73.67;100349.63;5019425;28;20080;-69
2022/05/16 10:03:26;;;;;;;6.78;6.22;;;;;;;28.16;73.77;100434.00;5011732;28;20096;-69
2022/05/16 10:05:53;;;;;;;8.13;6.10;;;;;;;28.38;71.13;100417.94;5022698;28;20129;-68
2022/05/16 10:08:25;;;;;;;9.18;5.68;;;;;;;27.48;72.69;100431.66;5021790;28;20022;-69
2022/05/16 10:10:50;;;;;;;6.15;5.45;;;;;;;28.27;69.93;100391.94;5011861;28;20087;-68
2022/05/16 10:13:17;;;;;;;6.85;5.32;;;;;;;28.66;66.90;100393.38;5013440;28;20030;-69
2022/05/16 10:15:44;;;;;;;5.75;5.15;;;;;;;28.97;66.99;100381.59;5016974;28;20080;-70
2022/05/16 10:18:16;;;;;;;7.13;5.95;;;;;;;29.11;66.62;100375.00;5024863;28;20029;-69
2022/05/16 10:20:46;;;;;;;6.80;6.10;;;;;;;28.32;67.44;100350.47;5011888;28;20489;-69
2022/05/16 10:23:34;;;;;;;6.97;5.85;;;;;;;28.86;66.82;100336.50;5023518;28;20540;-68
2022/05/16 10:26:04;;;;;;;7.90;5.70;;;;;;;28.73;65.43;100347.34;5060823;28;20404;-71
2022/05/16 10:28:41;;;;;;;5.23;4.33;;;;;;;28.86;60.71;100384.44;5032965;28;20037;-69
2022/05/16 10:34:06;;;;;;;5.38;4.75;;;;;;;28.44;58.25;100375.47;5032735;28;20040;-70
2022/05/16 10:36:33;;;;;;;5.38;4.75;;;;;;;29.34;60.33;100377.97;5032538;28;20029;-70
2022/05/16 10:39:15;;;;;;;5.90;5.07;;;;;;;29.48;59.07;100328.44;5032654;28;20029;-70
2022/05/16 10:42:06;;;;;;;8.55;4.82;;;;;;;29.74;59.87;100381.72;5032510;28;20033;-69
2022/05/16 10:44:35;;;;;;;;;;;;;;;29.35;57.89;100377.00;5025836;28;20041;-70
2022/05/16 10:47:13;;;;;;;6.70;4.70;;;;;;;29.31;58.30;100383.53;5029807;28;19917;-69
2022/05/16 10:49:45;;;;;;;7.32;4.70;;;;;;;29.22;58.45;100317.13;5024515;28;20124;-70
2022/05/16 10:52:22;;;;;;;7.10;5.15;;;;;;;29.92;59.32;100365.91;5030872;28;20033;-70
2022/05/16 10:54:48;;;;;;;5.20;4.70;;;;;;;28.89;58.83;100362.34;5031976;28;20759;-70
2022/05/16 10:57:32;;;;;;;8.25;5.00;;;;;;;29.47;59.37;100367.91;5031978;28;20113;-69
2022/05/16 11:00:10;;;;;;;5.30;4.80;;;;;;;28.57;58.99;100364.66;5030870;28;20037;-69
2022/05/16 11:02:41;;;;;;;5.97;4.40;;;;;;;28.48;60.07;100353.28;5030703;28;20057;-70
2022/05/16 11:05:12;;;;;;;5.60;4.63;;;;;;;29.54;58.19;100345.34;5031747;28;20442;-70
2022/05/16 11:07:45;;;;;;;;;;;;;;;29.01;59.52;100346.28;5030959;28;20099;-70
2022/05/16 11:10:16;;;;;;;6.07;4.63;;;;;;;28.21;60.50;100343.66;5030647;28;19971;-70
2022/05/16 11:12:54;;;;;;;6.78;4.82;;;;;;;27.68;62.34;100299.97;5030762;28;20065;-70
2022/05/16 11:15:34;;;;;;;9.18;5.45;;;;;;;27.95;64.65;100340.06;5029748;28;20068;-70
2022/05/16 11:18:25;;;;;;;8.18;5.70;;;;;;;27.31;65.93;100336.53;5026113;28;20498;-69
2022/05/16 11:21:11;;;;;;;7.63;6.22;;;;;;;27.30;66.37;100321.78;5031494;28;20044;-69
2022/05/16 11:23:51;;;;;;;7.72;6.13;;;;;;;27.29;69.12;100326.22;5030371;28;20029;-69
2022/05/16 11:26:20;;;;;;;15.27;7.45;;;;;;;27.46;69.65;100332.50;5031638;28;20040;-69
2022/05/16 11:29:19;;;;;;;6.80;6.20;;;;;;;27.12;69.61;100339.97;5031762;28;20124;-69
2022/05/16 11:32:18;;;;;;;9.80;6.25;;;;;;;27.44;68.81;100324.81;5030485;28;20037;-69
2022/05/16 11:35:01;;;;;;;6.55;5.65;;;;;;;26.87;67.94;100324.06;5031156;28;20045;-69
2022/05/16 11:37:59;;;;;;;6.38;5.32;;;;;;;27.05;67.92;100318.00;5029975;28;20133;-69
2022/05/16 11:40:31;;;;;;;7.75;6.05;;;;;;;26.53;70.43;100315.78;4997817;28;20081;-70
2022/05/16 11:43:14;;;;;;;7.43;5.80;;;;;;;26.79;68.07;100305.66;5031299;28;20060;-70
2022/05/16 11:46:17;;;;;;;7.63;5.68;;;;;;;26.98;68.39;100296.00;5029764;28;20606;-70
2022/05/16 11:49:12;;;;;;;7.13;5.63;;;;;;;27.55;68.80;100281.19;5031184;28;20029;-71
2022/05/16 11:52:00;;;;;;;8.05;5.80;;;;;;;27.01;71.18;100267.03;5030821;28;20109;-69
2022/05/16 11:54:30;;;;;;;9.60;6.97;;;;;;;27.18;71.32;100268.91;5031343;28;20033;-69
2022/05/16 12:02:28;;;;;;;8.05;7.25;;;;;;;26.06;100.00;100298.22;5030732;28;20064;-68